Time;durP1;ratioP1;P1;durP2;ratioP2;P2;SDS_P1;SDS_P2;PMS_P1;PMS_P2;Temp;Humidity;BMP_temperature;BMP_pressure;BME280_temperature;BME280_humidity;BME280_pressure;Samples;Min_cycle;Max_cycle;Signal;HPM_P1;HPM_P2
2023/06/28 00:00:08;;;;;;;7.53;4.20;;;14.60;99.90;;;;;;5051403;28;20068;-72
2023/06/28 00:02:35;;;;;;;8.43;4.03;;;14.60;99.90;;;;;;5036880;28;20380;-74
2023/06/28 00:05:07;;;;;;;9.07;4.50;;;14.60;99.90;;;;;;5031240;28;20048;-72
2023/06/28 00:07:34;;;;;;;10.55;5.32;;;14.60;99.90;;;;;;5019271;28;20441;-75
2023/06/28 00:09:59;;;;;;;9.65;5.07;;;14.60;99.90;;;;;;5052419;28;20090;-73
2023/06/28 00:12:28;;;;;;;7.55;4.38;;;14.60;99.90;;;;;;5047263;28;20036;-73
2023/06/28 00:14:54;;;;;;;6.18;4.10;;;14.60;99.90;;;;;;5060165;28;20099;-75
2023/06/28 00:17:27;;;;;;;7.47;3.67;;;14.60;99.90;;;;;;5035639;28;20505;-75
2023/06/28 00:19:57;;;;;;;6.72;3.92;;;14.60;99.90;;;;;;5032795;28;20044;-73
2023/06/28 00:22:29;;;;;;;8.90;4.07;;;14.60;99.90;;;;;;5066346;28;20409;-76
2023/06/28 00:24:55;;;;;;;6.93;3.88;;;14.60;99.90;;;;;;5062017;28;20095;-74
2023/06/28 00:27:21;;;;;;;6.60;3.78;;;14.60;99.90;;;;;;5014431;28;20592;-75
2023/06/28 00:29:46;;;;;;;8.82;4.28;;;14.60;99.90;;;;;;5047896;28;20033;-76
2023/06/28 00:32:12;;;;;;;6.78;4.03;;;14.70;99.90;;;;;;5061911;28;20473;-73
2023/06/28 00:34:38;;;;;;;5.72;3.63;;;14.60;99.90;;;;;;5044620;28;20469;-73
2023/06/28 00:37:03;;;;;;;6.00;4.03;;;14.60;99.90;;;;;;5050486;28;20033;-77
2023/06/28 00:39:29;;;;;;;8.07;3.90;;;14.60;99.90;;;;;;5022345;28;20041;-75
2023/06/28 00:41:55;;;;;;;7.88;3.60;;;14.70;99.90;;;;;;5043341;28;20051;-74
2023/06/28 00:44:21;;;;;;;5.90;3.65;;;14.60;99.90;;;;;;5058426;28;20094;-75
2023/06/28 00:46:48;;;;;;;8.90;3.78;;;14.60;99.90;;;;;;5047190;28;20036;-74
2023/06/28 00:49:15;;;;;;;8.68;4.10;;;14.70;99.90;;;;;;5068128;28;20067;-77
2023/06/28 00:51:41;;;;;;;10.00;4.30;;;14.70;99.90;;;;;;5020003;28;20045;-72
2023/06/28 00:54:07;;;;;;;7.68;4.15;;;14.70;99.90;;;;;;5026409;28;20127;-73
2023/06/28 00:56:34;;;;;;;7.82;4.30;;;14.60;99.90;;;;;;5040760;28;20148;-74
2023/06/28 00:59:02;;;;;;;10.52;4.40;;;14.70;99.90;;;;;;5036402;28;20127;-74
2023/06/28 01:01:28;;;;;;;10.10;4.93;;;14.70;99.90;;;;;;5030752;28;20048;-74
2023/06/28 01:03:56;;;;;;;8.25;4.70;;;14.60;99.90;;;;;;5045515;28;20105;-72
2023/06/28 01:06:24;;;;;;;9.40;3.95;;;14.70;99.90;;;;;;5046940;28;20079;-72
2023/06/28 01:08:51;;;;;;;8.85;4.72;;;14.60;99.90;;;;;;5031615;28;20417;-73
2023/06/28 01:11:17;;;;;;;9.95;4.57;;;14.60;99.90;;;;;;5042562;28;20131;-72
2023/06/28 01:13:45;;;;;;;10.35;4.70;;;14.60;99.90;;;;;;5031588;28;20057;-72
2023/06/28 01:16:10;;;;;;;10.98;4.97;;;14.60;99.90;;;;;;5037212;28;20131;-72
2023/06/28 01:18:36;;;;;;;9.38;5.10;;;14.70;99.90;;;;;;5042779;28;20127;-72
2023/06/28 01:21:05;;;;;;;10.60;4.82;;;14.60;99.90;;;;;;5035229;28;20037;-73
2023/06/28 01:23:31;;;;;;;10.40;5.78;;;14.70;99.90;;;;;;5053806;28;20053;-75
2023/06/28 01:26:02;;;;;;;11.52;6.07;;;14.70;99.90;;;;;;5046011;28;20056;-71
2023/06/28 01:28:32;;;;;;;12.52;5.78;;;14.70;99.90;;;;;;5039378;28;20115;-72
2023/06/28 01:30:59;;;;;;;8.20;5.20;;;14.70;99.90;;;;;;5061744;28;20040;-72
2023/06/28 01:33:26;;;;;;;9.20;4.57;;;14.70;99.90;;;;;;5034278;28;20037;-75
2023/06/28 01:35:52;;;;;;;9.75;5.03;;;14.70;99.90;;;;;;5047757;28;20040;-74
2023/06/28 01:38:19;;;;;;;14.02;5.55;;;14.80;99.90;;;;;;5062200;28;20044;-73
2023/06/28 01:40:48;;;;;;;13.57;4.90;;;14.80;99.90;;;;;;5066313;28;20072;-73
2023/06/28 01:43:14;;;;;;;10.52;4.65;;;14.80;99.90;;;;;;5030994;28;20036;-74
2023/06/28 01:45:40;;;;;;;8.80;4.13;;;14.70;99.90;;;;;;5012140;28;20048;-76
2023/06/28 01:48:06;;;;;;;10.63;5.00;;;14.80;99.90;;;;;;5054272;28;20033;-76
2023/06/28 01:50:31;;;;;;;8.88;4.20;;;14.80;99.90;;;;;;5049518;28;20089;-75
2023/06/28 01:53:00;;;;;;;6.65;4.32;;;14.80;99.90;;;;;;5040045;28;20094;-75
2023/06/28 01:55:27;;;;;;;7.65;4.35;;;14.70;99.90;;;;;;5053054;28;20044;-77
2023/06/28 01:57:52;;;;;;;9.73;4.20;;;14.70;99.90;;;;;;5057830;28;20049;-73
2023/06/28 02:00:19;;;;;;;6.78;3.88;;;14.80;99.90;;;;;;5034675;28;20083;-78
2023/06/28 02:02:45;;;;;;;7.78;4.10;;;14.60;99.90;;;;;;5032689;28;20044;-75
2023/06/28 02:05:10;;;;;;;7.18;4.40;;;14.60;99.90;;;;;;5055641;28;20044;-72
2023/06/28 02:07:37;;;;;;;7.18;4.00;;;14.70;99.90;;;;;;5048045;28;20478;-76
2023/06/28 02:10:03;;;;;;;9.63;4.65;;;14.70;99.90;;;;;;5042935;28;20119;-72
2023/06/28 02:12:29;;;;;;;8.82;4.40;;;14.70;99.90;;;;;;5049533;28;20168;-75
2023/06/28 02:14:55;;;;;;;9.38;4.65;;;14.60;99.90;;;;;;5052023;28;20544;-74
2023/06/28 02:17:20;;;;;;;8.07;4.45;;;14.70;99.90;;;;;;5038089;28;20145;-73
2023/06/28 02:19:50;;;;;;;9.82;4.45;;;14.70;99.90;;;;;;5026934;28;20040;-75
2023/06/28 02:22:16;;;;;;;8.20;4.63;;;14.70;99.90;;;;;;5068329;28;20044;-75
2023/06/28 02:24:43;;;;;;;10.60;5.22;;;14.70;99.90;;;;;;5049035;28;20053;-73
2023/06/28 02:27:09;;;;;;;8.35;5.70;;;14.70;99.90;;;;;;5039917;28;20044;-73
2023/06/28 02:29:35;;;;;;;11.73;5.45;;;14.70;99.90;;;;;;5045124;28;20115;-75
2023/06/28 02:32:01;;;;;;;7.22;5.13;;;14.80;99.90;;;;;;5036473;28;20032;-72
2023/06/28 02:34:27;;;;;;;10.65;5.95;;;14.90;99.90;;;;;;5069596;28;20036;-73
2023/06/28 02:36:52;;;;;;;7.60;5.38;;;14.90;99.90;;;;;;5052456;28;20045;-75
2023/06/28 02:39:18;;;;;;;13.15;6.40;;;14.90;99.90;;;;;;5052728;28;20047;-74
2023/06/28 02:41:44;;;;;;;11.00;5.47;;;14.90;99.90;;;;;;5043908;28;20389;-72
2023/06/28 02:44:10;;;;;;;12.00;5.70;;;15.00;99.90;;;;;;5067836;28;20067;-73
2023/06/28 02:46:36;;;;;;;11.10;6.00;;;14.90;99.90;;;;;;5040503;28;20029;-73
2023/06/28 02:49:01;;;;;;;7.70;5.60;;;15.00;99.90;;;;;;5049020;28;20060;-75
2023/06/28 02:51:27;;;;;;;14.65;6.25;;;15.00;99.90;;;;;;5058980;28;20202;-73
2023/06/28 02:53:53;;;;;;;10.25;5.95;;;15.00;99.90;;;;;;5048521;28;20049;-73
2023/06/28 02:56:19;;;;;;;6.40;5.38;;;15.00;99.90;;;;;;5031085;28;20746;-74
2023/06/28 02:58:44;;;;;;;10.65;4.78;;;15.00;99.90;;;;;;5065724;28;20063;-72
2023/06/28 03:01:10;;;;;;;9.68;5.70;;;15.10;99.90;;;;;;5051462;28;20373;-74
2023/06/28 03:03:39;;;;;;;10.13;5.13;;;15.10;99.90;;;;;;5068677;28;20075;-77
2023/06/28 03:06:07;;;;;;;9.77;5.18;;;15.10;99.90;;;;;;5066243;28;20048;-77
2023/06/28 03:08:33;;;;;;;8.43;4.82;;;15.00;99.90;;;;;;5045550;28;20041;-76
2023/06/28 03:10:59;;;;;;;7.28;5.30;;;15.10;99.90;;;;;;5035134;28;20096;-76
2023/06/28 03:13:25;;;;;;;10.00;5.13;;;15.00;99.90;;;;;;5056292;28;20045;-74
2023/06/28 03:15:50;;;;;;;11.73;6.00;;;15.00;99.90;;;;;;5055729;28;21052;-72
2023/06/28 03:18:16;;;;;;;11.43;5.22;;;15.00;99.90;;;;;;5056247;28;20072;-76
2023/06/28 03:20:42;;;;;;;8.25;5.20;;;15.10;99.90;;;;;;5040798;28;20517;-74
2023/06/28 03:23:08;;;;;;;8.80;5.70;;;15.00;99.90;;;;;;5047091;28;20235;-75
2023/06/28 03:25:34;;;;;;;10.80;5.38;;;15.00;99.90;;;;;;5046679;28;20057;-77
2023/06/28 03:28:00;;;;;;;10.02;5.40;;;15.10;99.90;;;;;;5031163;28;20045;-73
2023/06/28 03:30:26;;;;;;;12.27;5.47;;;15.00;99.90;;;;;;5022190;28;20044;-75
2023/06/28 03:32:51;;;;;;;5.72;4.78;;;15.00;99.90;;;;;;5045962;28;20123;-76
2023/06/28 03:35:17;;;;;;;8.93;4.55;;;15.00;99.90;;;;;;5046597;28;20041;-73
2023/06/28 03:37:53;;;;;;;10.23;5.85;;;15.00;99.90;;;;;;5031328;28;20103;-76
2023/06/28 03:40:19;;;;;;;8.27;4.72;;;15.00;99.90;;;;;;5047668;28;20115;-76
2023/06/28 03:42:45;;;;;;;10.50;5.15;;;14.90;99.90;;;;;;5047480;28;20029;-77
2023/06/28 03:45:11;;;;;;;9.98;5.20;;;14.90;99.90;;;;;;5038522;28;20048;-74
2023/06/28 03:47:37;;;;;;;8.13;5.05;;;14.90;99.90;;;;;;5047124;28;20044;-77
2023/06/28 03:50:03;;;;;;;8.85;4.95;;;15.00;99.90;;;;;;5046283;28;20139;-75
2023/06/28 03:52:28;;;;;;;9.68;4.90;;;15.00;99.90;;;;;;5046727;28;20123;-76
2023/06/28 03:54:54;;;;;;;7.40;4.88;;;15.00;99.90;;;;;;5012239;28;20120;-75
2023/06/28 03:57:23;;;;;;;5.53;4.43;;;15.10;99.90;;;;;;5010713;28;20476;-72
2023/06/28 03:59:48;;;;;;;8.18;5.03;;;15.10;99.90;;;;;;5012847;28;20416;-72
2023/06/28 04:02:15;;;;;;;7.55;5.47;;;15.10;99.90;;;;;;5028785;28;20037;-73
2023/06/28 04:04:41;;;;;;;9.43;5.00;;;15.20;99.90;;;;;;5027828;28;20087;-73
2023/06/28 04:07:07;;;;;;;8.40;5.28;;;15.20;99.90;;;;;;5044808;28;20873;-75
2023/06/28 04:09:33;;;;;;;8.38;4.78;;;15.30;99.90;;;;;;5045214;28;20048;-74
2023/06/28 04:11:59;;;;;;;8.63;4.40;;;15.30;99.90;;;;;;5046739;28;20074;-73
2023/06/28 04:14:24;;;;;;;6.43;4.00;;;15.40;99.90;;;;;;5046642;28;20037;-74
2023/06/28 04:16:51;;;;;;;8.95;4.88;;;15.40;99.90;;;;;;5044581;28;20033;-75
2023/06/28 04:19:17;;;;;;;7.35;4.68;;;15.30;99.90;;;;;;5026520;28;20053;-73
2023/06/28 04:21:43;;;;;;;6.22;4.25;;;15.40;99.90;;;;;;5047661;28;20132;-72
2023/06/28 04:24:09;;;;;;;7.22;4.07;;;15.40;99.90;;;;;;5048207;28;20084;-75
2023/06/28 04:26:34;;;;;;;6.65;4.38;;;15.40;99.90;;;;;;5015114;28;20523;-73
2023/06/28 04:29:00;;;;;;;7.53;4.75;;;15.40;99.90;;;;;;5014676;28;20036;-74
2023/06/28 04:31:27;;;;;;;8.90;4.15;;;15.40;99.90;;;;;;5046532;28;20048;-76
2023/06/28 04:33:55;;;;;;;7.93;4.50;;;15.60;99.90;;;;;;5028872;28;20063;-72
2023/06/28 04:36:21;;;;;;;6.45;4.40;;;15.60;99.90;;;;;;5044661;28;20373;-72
2023/06/28 04:38:52;;;;;;;6.63;3.67;;;15.50;99.90;;;;;;5035316;28;20096;-76
2023/06/28 04:41:28;;;;;;;8.75;4.38;;;15.60;99.90;;;;;;5060664;28;20071;-73
2023/06/28 04:43:55;;;;;;;7.05;3.70;;;15.50;99.90;;;;;;5045930;28;20397;-75
2023/06/28 04:46:27;;;;;;;6.50;4.13;;;15.60;99.90;;;;;;5044034;28;20538;-76
2023/06/28 04:48:53;;;;;;;8.40;4.00;;;15.60;99.90;;;;;;5030100;28;20039;-68
2023/06/28 04:51:20;;;;;;;7.15;4.60;;;15.70;99.90;;;;;;5029930;28;20508;-75
2023/06/28 04:53:47;;;;;;;8.10;4.20;;;15.70;99.90;;;;;;5044846;28;20037;-71
2023/06/28 04:56:16;;;;;;;6.05;3.85;;;15.70;99.90;;;;;;5029144;28;20036;-74
2023/06/28 04:58:42;;;;;;;6.68;4.25;;;15.70;99.90;;;;;;5046302;28;20048;-71
2023/06/28 05:01:08;;;;;;;7.65;4.30;;;15.70;99.90;;;;;;5045877;28;20068;-74
2023/06/28 05:03:35;;;;;;;6.22;3.65;;;15.60;99.90;;;;;;5045627;28;20065;-73
2023/06/28 05:06:07;;;;;;;7.68;3.85;;;15.70;99.90;;;;;;5030636;28;20029;-72
2023/06/28 05:08:33;;;;;;;4.55;3.30;;;15.70;99.90;;;;;;5044942;28;20044;-73
2023/06/28 05:10:59;;;;;;;4.68;3.08;;;15.70;99.90;;;;;;5038484;28;20043;-75
2023/06/28 05:13:25;;;;;;;7.10;3.40;;;15.70;99.90;;;;;;5045854;28;20125;-75
2023/06/28 05:15:51;;;;;;;5.97;3.40;;;15.70;99.90;;;;;;5028183;28;20029;-74
2023/06/28 05:18:20;;;;;;;5.90;3.45;;;15.70;99.90;;;;;;5029778;28;20378;-74
2023/06/28 05:20:46;;;;;;;6.68;3.10;;;15.70;99.90;;;;;;5045090;28;20052;-75
2023/06/28 05:23:23;;;;;;;4.63;3.15;;;15.70;99.90;;;;;;5030100;28;20033;-76
2023/06/28 05:25:50;;;;;;;4.47;3.38;;;15.80;99.90;;;;;;5043658;28;20140;-75
2023/06/28 05:28:15;;;;;;;5.45;2.80;;;15.90;99.90;;;;;;5048398;28;20864;-74
2023/06/28 05:30:42;;;;;;;5.53;2.80;;;15.80;99.90;;;;;;5050091;28;20037;-75
2023/06/28 05:33:09;;;;;;;6.32;3.13;;;15.90;99.90;;;;;;5034172;28;20417;-76
2023/06/28 05:35:35;;;;;;;5.72;3.47;;;16.00;99.90;;;;;;5014973;28;20469;-72
2023/06/28 05:38:03;;;;;;;4.35;2.65;;;16.00;99.90;;;;;;5032702;28;20511;-74
2023/06/28 05:40:30;;;;;;;4.53;2.85;;;16.00;99.90;;;;;;5048150;28;20497;-72
2023/06/28 05:42:58;;;;;;;5.57;2.80;;;16.10;99.90;;;;;;5049354;28;20040;-74
2023/06/28 05:45:25;;;;;;;5.00;2.92;;;16.10;99.90;;;;;;5033804;28;20041;-73
2023/06/28 05:47:51;;;;;;;6.57;2.70;;;16.20;99.90;;;;;;5031610;28;20042;-72
2023/06/28 05:50:17;;;;;;;8.60;2.75;;;16.20;99.90;;;;;;5048110;28;20064;-74
2023/06/28 05:52:44;;;;;;;5.25;2.92;;;16.40;99.90;;;;;;5041716;28;20072;-74
2023/06/28 05:55:10;;;;;;;3.72;3.00;;;16.30;99.90;;;;;;5049653;28;20154;-72
2023/06/28 05:57:36;;;;;;;6.25;2.80;;;16.50;99.90;;;;;;5041786;28;20044;-72
2023/06/28 06:00:04;;;;;;;4.07;2.97;;;16.50;99.90;;;;;;5013688;28;21928;-74
2023/06/28 06:02:29;;;;;;;4.18;2.63;;;16.40;99.90;;;;;;5048155;28;20454;-72
2023/06/28 06:04:55;;;;;;;4.75;2.80;;;16.50;99.90;;;;;;5049212;28;20091;-75
2023/06/28 06:07:21;;;;;;;5.07;2.65;;;16.60;99.90;;;;;;5033291;28;20044;-73
2023/06/28 06:09:46;;;;;;;5.15;2.80;;;16.60;99.90;;;;;;5030833;28;20029;-76
2023/06/28 06:12:12;;;;;;;6.07;2.95;;;16.70;99.90;;;;;;5030201;28;20095;-75
2023/06/28 06:14:38;;;;;;;3.45;2.38;;;16.70;99.90;;;;;;5042217;28;20045;-73
2023/06/28 06:17:04;;;;;;;5.05;3.00;;;16.70;99.90;;;;;;5015383;28;20072;-76
2023/06/28 06:19:29;;;;;;;4.72;2.80;;;16.80;99.90;;;;;;5048821;28;20397;-76
2023/06/28 06:21:55;;;;;;;5.53;2.67;;;16.80;99.90;;;;;;5044831;28;20045;-75
2023/06/28 06:24:21;;;;;;;3.97;2.47;;;16.80;99.90;;;;;;5032179;28;20048;-76
2023/06/28 06:26:46;;;;;;;5.35;2.90;;;16.90;99.90;;;;;;5032427;28;20041;-76
2023/06/28 06:29:12;;;;;;;5.70;3.00;;;16.90;99.90;;;;;;5048830;28;20378;-77
2023/06/28 06:31:38;;;;;;;6.30;3.25;;;17.00;99.90;;;;;;5033014;28;20041;-74
2023/06/28 06:34:03;;;;;;;5.43;2.70;;;16.90;99.90;;;;;;5047396;28;20048;-76
2023/06/28 06:36:29;;;;;;;4.03;2.70;;;16.90;99.90;;;;;;5048676;28;20052;-73
2023/06/28 06:38:59;;;;;;;5.90;3.50;;;16.90;99.90;;;;;;5047020;28;20045;-77
2023/06/28 06:41:25;;;;;;;6.25;3.08;;;17.00;99.90;;;;;;5048741;28;20071;-75
2023/06/28 06:43:51;;;;;;;4.32;3.15;;;17.10;99.90;;;;;;5044287;28;20036;-72
2023/06/28 06:46:20;;;;;;;7.50;3.85;;;17.10;99.90;;;;;;5048427;28;20098;-71
2023/06/28 06:48:49;;;;;;;5.63;3.38;;;16.90;99.90;;;;;;5037903;28;20404;-73
2023/06/28 06:51:15;;;;;;;6.10;3.70;;;17.00;99.90;;;;;;5023669;28;20401;-74
2023/06/28 06:53:40;;;;;;;6.70;2.97;;;17.00;99.90;;;;;;5031372;28;20040;-72
2023/06/28 06:56:06;;;;;;;6.90;3.85;;;17.10;99.90;;;;;;5032342;28;20071;-73
2023/06/28 06:58:33;;;;;;;6.25;3.50;;;17.10;99.90;;;;;;5028406;28;20587;-74
2023/06/28 07:00:58;;;;;;;7.75;3.90;;;17.20;99.90;;;;;;5039398;28;20045;-73
2023/06/28 07:03:24;;;;;;;7.55;4.20;;;17.20;99.90;;;;;;5046814;28;20440;-75
2023/06/28 07:05:50;;;;;;;7.55;4.30;;;17.20;99.90;;;;;;5047710;28;20040;-74
2023/06/28 07:08:17;;;;;;;8.75;4.93;;;17.30;99.90;;;;;;5031175;28;20087;-75
2023/06/28 07:10:43;;;;;;;8.88;4.68;;;17.30;99.90;;;;;;5032557;28;20151;-76
2023/06/28 07:13:10;;;;;;;7.03;4.65;;;17.30;99.90;;;;;;5031471;28;20691;-74
2023/06/28 07:15:36;;;;;;;7.72;4.50;;;17.40;99.90;;;;;;5029506;28;20103;-74
2023/06/28 07:18:03;;;;;;;8.57;4.72;;;17.40;99.90;;;;;;5016442;28;20980;-73
2023/06/28 07:20:29;;;;;;;8.02;5.00;;;17.40;99.90;;;;;;5015382;28;20053;-70
2023/06/28 07:22:55;;;;;;;9.65;5.35;;;17.40;99.90;;;;;;5015445;28;20100;-72
2023/06/28 07:25:20;;;;;;;6.65;4.60;;;17.40;99.90;;;;;;5029199;28;20122;-73
2023/06/28 07:27:46;;;;;;;7.63;4.57;;;17.40;99.90;;;;;;5047129;28;20477;-70
2023/06/28 07:30:12;;;;;;;10.20;4.97;;;17.60;99.90;;;;;;5046697;28;20048;-72
2023/06/28 07:32:38;;;;;;;7.57;4.95;;;17.60;99.90;;;;;;5048302;28;20086;-74
2023/06/28 07:35:04;;;;;;;7.55;4.55;;;17.60;99.90;;;;;;5029967;28;20060;-76
2023/06/28 07:37:30;;;;;;;7.93;4.70;;;17.50;99.90;;;;;;5044917;28;21056;-75
2023/06/28 07:39:58;;;;;;;5.88;4.80;;;17.60;99.90;;;;;;5014947;28;20401;-76
2023/06/28 07:42:24;;;;;;;6.43;4.60;;;17.70;99.90;;;;;;5046152;28;20041;-78
2023/06/28 07:44:50;;;;;;;6.90;4.70;;;17.60;99.90;;;;;;5030506;28;20040;-72
2023/06/28 07:47:16;;;;;;;8.95;5.40;;;17.60;99.90;;;;;;5030071;28;20092;-78
2023/06/28 07:49:42;;;;;;;7.95;4.70;;;17.50;99.90;;;;;;5038012;28;20041;-73
2023/06/28 07:52:08;;;;;;;9.10;5.15;;;17.50;99.90;;;;;;5030815;28;20040;-78
2023/06/28 07:54:33;;;;;;;9.40;5.03;;;17.40;99.90;;;;;;5030354;28;20080;-74
2023/06/28 07:56:59;;;;;;;9.00;5.30;;;17.60;99.90;;;;;;5031693;28;20045;-77
2023/06/28 07:59:25;;;;;;;8.93;5.05;;;17.60;99.90;;;;;;5015025;28;20048;-77
2023/06/28 08:01:51;;;;;;;8.20;5.20;;;17.60;99.90;;;;;;5027130;28;20064;-78
2023/06/28 08:04:17;;;;;;;8.90;5.85;;;17.60;99.90;;;;;;5046837;28;20037;-76
2023/06/28 08:06:46;;;;;;;9.25;5.47;;;17.60;99.90;;;;;;5014923;28;20409;-78
2023/06/28 08:09:12;;;;;;;8.30;5.38;;;17.70;99.90;;;;;;5031380;28;20501;-77
2023/06/28 08:11:38;;;;;;;8.07;5.43;;;17.80;99.90;;;;;;5030149;28;20045;-81
2023/06/28 08:14:07;;;;;;;9.52;5.45;;;17.80;99.90;;;;;;5031334;28;20132;-79
2023/06/28 08:16:33;;;;;;;6.07;4.15;;;17.90;99.90;;;;;;4998509;28;20057;-80
2023/06/28 08:18:59;;;;;;;9.25;5.78;;;18.00;99.90;;;;;;5047846;28;20495;-76
2023/06/28 08:21:25;;;;;;;10.43;5.10;;;18.00;99.90;;;;;;5046819;28;20119;-80
2023/06/28 08:23:52;;;;;;;8.57;5.60;;;18.00;99.90;;;;;;5030165;28;20428;-76
2023/06/28 08:26:18;;;;;;;8.82;5.80;;;18.20;99.90;;;;;;5031046;28;20052;-75
2023/06/28 08:28:44;;;;;;;10.10;5.40;;;18.30;99.90;;;;;;5047511;28;20039;-81
2023/06/28 08:31:10;;;;;;;7.45;5.38;;;18.50;99.90;;;;;;5029677;28;20044;-79
2023/06/28 08:33:35;;;;;;;7.43;5.53;;;18.30;99.90;;;;;;4995258;28;20132;-78
2023/06/28 08:36:01;;;;;;;9.60;5.78;;;18.40;99.90;;;;;;5030067;28;20041;-80
2023/06/28 08:38:27;;;;;;;7.68;5.15;;;18.40;99.90;;;;;;5047807;28;20440;-76
2023/06/28 08:40:53;;;;;;;6.63;5.07;;;18.40;99.90;;;;;;5046803;28;20041;-74
2023/06/28 08:43:21;;;;;;;7.72;5.25;;;18.40;99.90;;;;;;5028287;28;20124;-78
2023/06/28 08:45:47;;;;;;;7.55;5.40;;;18.40;99.90;;;;;;5030633;28;20052;-77
2023/06/28 08:48:14;;;;;;;7.63;4.85;;;18.30;99.90;;;;;;5049734;28;20068;-77
2023/06/28 08:50:40;;;;;;;9.27;5.57;;;18.40;99.90;;;;;;5050819;28;20040;-80
2023/06/28 08:53:09;;;;;;;9.90;5.70;;;18.50;99.90;;;;;;5011544;28;20128;-79
2023/06/28 08:55:36;;;;;;;6.90;4.95;;;18.60;99.90;;;;;;5031269;28;20048;-79
2023/06/28 08:58:05;;;;;;;8.70;5.65;;;18.50;99.90;;;;;;5046487;28;20048;-78
2023/06/28 09:00:31;;;;;;;7.00;5.30;;;18.50;99.90;;;;;;5030798;28;20041;-81
2023/06/28 09:02:57;;;;;;;8.73;5.97;;;18.60;99.90;;;;;;5010710;28;20041;-82
2023/06/28 09:05:23;;;;;;;7.53;5.35;;;18.50;99.90;;;;;;5030697;28;20048;-81
2023/06/28 09:07:52;;;;;;;8.60;5.63;;;18.40;99.90;;;;;;5013851;28;20041;-83
2023/06/28 09:10:19;;;;;;;8.60;5.80;;;18.50;99.90;;;;;;5047084;28;20116;-82
2023/06/28 09:12:45;;;;;;;9.63;5.55;;;18.50;99.90;;;;;;5029467;28;20120;-82
2023/06/28 09:15:12;;;;;;;8.23;5.82;;;18.20;99.90;;;;;;5028641;28;20045;-81
2023/06/28 09:17:37;;;;;;;9.60;5.80;;;18.50;99.90;;;;;;5014077;28;20049;-81
2023/06/28 09:20:20;;;;;;;8.63;6.10;;;18.40;99.90;;;;;;5029784;28;20102;-82
2023/06/28 09:22:56;;;;;;;10.55;5.85;;;18.30;99.90;;;;;;5031874;28;20059;-83
2023/06/28 09:25:24;;;;;;;8.13;5.57;;;18.30;99.90;;;;;;5012983;28;20052;-82
2023/06/28 09:27:49;;;;;;;8.52;5.25;;;17.90;99.90;;;;;;5027712;28;20132;-79
2023/06/28 09:30:18;;;;;;;7.82;6.32;;;18.00;99.90;;;;;;5013312;28;20120;-78
2023/06/28 09:32:50;;;;;;;7.30;5.68;;;18.10;99.90;;;;;;5030874;28;20043;-79
2023/06/28 09:35:18;;;;;;;10.00;6.18;;;18.00;99.90;;;;;;5030918;28;20044;-79
2023/06/28 09:37:50;;;;;;;8.68;6.50;;;18.10;99.90;;;;;;5013663;28;20057;-78
2023/06/28 09:40:17;;;;;;;8.25;5.97;;;18.00;99.90;;;;;;5030191;28;20078;-79
2023/06/28 09:42:47;;;;;;;11.85;6.82;;;18.30;99.90;;;;;;5043716;28;20556;-79
2023/06/28 09:45:27;;;;;;;8.15;6.82;;;18.40;99.90;;;;;;5046420;28;20032;-79
2023/06/28 09:47:58;;;;;;;10.20;6.57;;;18.40;99.90;;;;;;5012743;28;20044;-78
2023/06/28 09:50:43;;;;;;;7.28;5.65;;;18.40;99.90;;;;;;5013918;28;20439;-77
2023/06/28 09:53:09;;;;;;;6.60;5.60;;;18.40;99.90;;;;;;5046519;28;20199;-78
2023/06/28 09:55:40;;;;;;;7.35;6.40;;;18.30;99.90;;;;;;5048696;28;20124;-80
2023/06/28 09:58:14;;;;;;;9.40;6.97;;;18.20;99.90;;;;;;5040131;28;20056;-83
2023/06/28 10:00:42;;;;;;;10.65;8.05;;;18.20;99.90;;;;;;5011778;28;20033;-81
2023/06/28 10:03:09;;;;;;;11.20;7.05;;;18.20;99.90;;;;;;5046081;28;20477;-77
2023/06/28 10:05:41;;;;;;;9.50;8.23;;;18.40;99.90;;;;;;5046563;28;20033;-77
2023/06/28 10:08:08;;;;;;;10.65;8.48;;;18.20;99.90;;;;;;5029700;28;20087;-83
2023/06/28 10:10:36;;;;;;;11.25;8.73;;;18.10;99.90;;;;;;5029812;28;20456;-78
2023/06/28 10:13:03;;;;;;;12.32;8.25;;;18.40;99.90;;;;;;5047311;28;20049;-79
2023/06/28 10:15:55;;;;;;;13.23;9.45;;;18.20;99.90;;;;;;5027384;28;20048;-79
2023/06/28 10:18:22;;;;;;;10.07;8.13;;;18.20;99.90;;;;;;5025807;28;20181;-81
2023/06/28 10:20:49;;;;;;;10.43;8.32;;;18.30;99.90;;;;;;5032847;28;20113;-82
2023/06/28 10:23:16;;;;;;;10.98;8.10;;;18.30;99.90;;;;;;5014639;28;20802;-82
2023/06/28 10:25:44;;;;;;;10.57;8.93;;;18.40;99.90;;;;;;5033027;28;20063;-78
2023/06/28 10:28:12;;;;;;;10.00;8.57;;;18.50;99.90;;;;;;5032876;28;20040;-77
2023/06/28 10:30:42;;;;;;;12.88;9.65;;;18.60;99.90;;;;;;5030454;28;20034;-79
2023/06/28 10:33:09;;;;;;;15.05;9.50;;;18.40;99.90;;;;;;5046576;28;20051;-81
2023/06/28 10:35:36;;;;;;;14.38;9.68;;;18.50;99.90;;;;;;5042040;28;20461;-80
2023/06/28 10:38:04;;;;;;;11.73;9.30;;;18.40;99.90;;;;;;5016673;28;20045;-76
2023/06/28 10:40:30;;;;;;;11.18;9.25;;;18.50;99.90;;;;;;5049758;28;20084;-80
2023/06/28 10:42:55;;;;;;;11.15;9.25;;;18.30;99.90;;;;;;5013968;28;20551;-83
2023/06/28 10:45:35;;;;;;;10.90;8.88;;;18.40;99.90;;;;;;5033008;28;20496;-83
2023/06/28 10:48:02;;;;;;;11.50;9.48;;;18.30;99.90;;;;;;5025750;28;20033;-81
2023/06/28 10:50:28;;;;;;;11.30;8.60;;;18.50;99.90;;;;;;5032991;28;20102;-80
2023/06/28 10:52:55;;;;;;;10.50;8.52;;;18.40;99.90;;;;;;5049064;28;20049;-81
2023/06/28 10:55:28;;;;;;;14.23;9.52;;;18.20;99.90;;;;;;5032458;28;20453;-80
2023/06/28 10:58:10;;;;;;;11.75;9.43;;;18.30;99.90;;;;;;5032405;28;20052;-79
2023/06/28 11:00:45;;;;;;;10.70;8.90;;;18.30;99.90;;;;;;5033152;28;20045;-81
2023/06/28 11:03:11;;;;;;;11.13;8.43;;;18.10;99.90;;;;;;5039330;28;20033;-82
2023/06/28 11:05:54;;;;;;;14.48;9.18;;;18.10;99.90;;;;;;5017223;28;20363;-77
2023/06/28 11:08:21;;;;;;;12.40;9.20;;;18.40;99.90;;;;;;5042532;28;20052;-77
2023/06/28 11:10:58;;;;;;;15.98;9.60;;;18.30;99.90;;;;;;5033332;28;20558;-81
2023/06/28 11:13:32;;;;;;;14.30;9.80;;;18.20;99.90;;;;;;5025318;28;20048;-83
2023/06/28 11:16:08;;;;;;;16.38;11.30;;;18.20;99.90;;;;;;5033947;28;20072;-80
2023/06/28 11:18:34;;;;;;;13.73;9.98;;;18.20;99.90;;;;;;5035233;28;20045;-78
2023/06/28 11:21:01;;;;;;;15.18;11.10;;;18.40;99.90;;;;;;5032352;28;20048;-78
2023/06/28 11:23:37;;;;;;;13.68;10.13;;;18.20;99.90;;;;;;5030390;28;20032;-80
2023/06/28 11:26:12;;;;;;;15.73;10.63;;;18.30;99.90;;;;;;5048109;28;20057;-82
2023/06/28 11:28:48;;;;;;;15.43;12.05;;;18.30;99.90;;;;;;5032259;28;20029;-80
2023/06/28 11:31:19;;;;;;;13.60;10.38;;;18.20;99.90;;;;;;5048457;28;20045;-78
2023/06/28 11:33:45;;;;;;;15.40;11.82;;;18.10;99.90;;;;;;5031024;28;20037;-76
2023/06/28 11:36:12;;;;;;;16.10;10.45;;;18.10;99.90;;;;;;5029457;28;20029;-81
2023/06/28 11:38:41;;;;;;;15.40;10.98;;;18.20;99.90;;;;;;5032142;28;20044;-77
2023/06/28 11:41:07;;;;;;;16.88;12.38;;;18.00;99.90;;;;;;5048440;28;20044;-78
2023/06/28 11:43:33;;;;;;;15.10;10.52;;;18.30;99.90;;;;;;5031824;28;20045;-84
2023/06/28 11:45:59;;;;;;;13.43;10.75;;;18.20;99.90;;;;;;5047729;28;20210;-81
2023/06/28 11:48:25;;;;;;;15.13;11.40;;;18.30;99.90;;;;;;5029556;28;20865;-78
2023/06/28 11:51:01;;;;;;;14.50;11.52;;;18.30;99.90;;;;;;5014250;28;20493;-76
2023/06/28 11:53:29;;;;;;;15.52;11.95;;;18.20;99.90;;;;;;5031491;28;20040;-80
2023/06/28 11:55:56;;;;;;;18.00;12.30;;;18.40;99.90;;;;;;5031383;28;20130;-80
2023/06/28 11:58:35;;;;;;;17.27;10.75;;;18.40;99.90;;;;;;5046518;28;20033;-78
2023/06/28 12:01:03;;;;;;;15.20;11.25;;;18.30;99.90;;;;;;5028305;28;20398;-79
2023/06/28 12:03:34;;;;;;;13.25;11.18;;;18.20;99.90;;;;;;5043338;28;20037;-76
2023/06/28 12:06:02;;;;;;;16.90;12.35;;;18.40;99.90;;;;;;5045875;28;20382;-80
2023/06/28 12:08:35;;;;;;;15.48;11.10;;;18.30;99.90;;;;;;5026392;28;20422;-76
2023/06/28 12:11:10;;;;;;;14.65;11.52;;;18.20;99.90;;;;;;5027294;28;20041;-81
2023/06/28 12:13:36;;;;;;;16.58;12.20;;;18.30;99.90;;;;;;5025608;28;20447;-77
2023/06/28 12:16:21;;;;;;;19.15;12.25;;;18.40;99.90;;;;;;5042604;28;20040;-80
2023/06/28 12:18:57;;;;;;;18.30;13.02;;;18.50;99.90;;;;;;5034234;28;20041;-80
2023/06/28 12:21:24;;;;;;;11.50;10.30;;;18.50;99.90;;;;;;5030219;28;20370;-81
2023/06/28 12:23:50;;;;;;;15.27;12.68;;;18.50;99.90;;;;;;5028869;28;20044;-79
2023/06/28 12:26:16;;;;;;;13.32;10.52;;;18.60;99.90;;;;;;5040717;28;20143;-77
2023/06/28 12:28:49;;;;;;;18.23;12.00;;;18.60;99.90;;;;;;5020434;28;20049;-78
2023/06/28 12:31:15;;;;;;;15.48;12.18;;;18.50;99.90;;;;;;5041785;28;20037;-77
2023/06/28 12:33:41;;;;;;;14.38;11.27;;;18.60;99.90;;;;;;5036822;28;20428;-78
2023/06/28 12:36:13;;;;;;;15.68;13.13;;;18.70;99.90;;;;;;5041332;28;20036;-80
2023/06/28 12:38:45;;;;;;;16.08;12.60;;;18.60;99.90;;;;;;5026090;28;20047;-77
2023/06/28 12:41:14;;;;;;;14.25;12.75;;;18.60;99.90;;;;;;5027026;28;20073;-76
2023/06/28 12:43:41;;;;;;;13.90;11.25;;;18.70;99.90;;;;;;5041563;28;20045;-77